Time;durP1;ratioP1;P1;durP2;ratioP2;P2;SDS_P1;SDS_P2;PMS_P1;PMS_P2;Temp;Humidity;BMP_temperature;BMP_pressure;BME280_temperature;BME280_humidity;BME280_pressure;Samples;Min_cycle;Max_cycle;Signal;HPM_P1;HPM_P2
2023/02/04 00:00:19;;;;;;;22.20;10.50;;;;;;;1.26;80.19;98855.36;78407;1295;3056633;-63
2023/02/04 00:02:47;;;;;;;23.10;11.10;;;;;;;1.26;80.15;98846.57;78223;1295;3048692;-67
2023/02/04 00:05:15;;;;;;;25.50;11.80;;;;;;;1.24;80.47;98845.23;79429;1295;3013544;-64
2023/02/04 00:07:42;;;;;;;28.40;12.40;;;;;;;1.19;80.64;98846.94;79484;1297;3011434;-63
2023/02/04 00:10:09;;;;;;;26.10;11.50;;;;;;;1.18;80.98;98844.39;78286;1297;3052075;-63
2023/02/04 00:12:37;;;;;;;28.60;11.50;;;;;;;1.20;80.60;98839.98;79446;1297;3015232;-63
2023/02/04 00:15:04;;;;;;;20.40;8.90;;;;;;;1.14;81.20;98837.80;79407;1295;3013609;-63
2023/02/04 00:17:33;;;;;;;21.40;9.00;;;;;;;1.52;81.15;98834.11;78049;1298;3050754;-67
2023/02/04 00:19:59;;;;;;;20.60;9.30;;;;;;;2.21;78.68;98833.45;79195;1298;3013667;-65
2023/02/04 00:22:27;;;;;;;29.50;12.10;;;;;;;2.50;77.60;98830.30;79233;1297;3011907;-65
2023/02/04 00:24:55;;;;;;;34.50;14.00;;;;;;;2.37;77.00;98829.56;78057;1297;3053353;-65
2023/02/04 00:27:22;;;;;;;33.40;13.30;;;;;;;2.11;77.40;98827.61;79311;1294;3011784;-65
2023/02/04 00:29:49;;;;;;;35.60;14.90;;;;;;;1.82;78.08;98828.79;79344;1295;3011856;-66
2023/02/04 00:32:17;;;;;;;32.10;13.80;;;;;;;1.65;79.24;98823.69;78165;1297;3048770;-65
2023/02/04 00:34:43;;;;;;;35.50;15.70;;;;;;;1.42;79.57;98823.24;79340;1297;3019346;-65
2023/02/04 00:37:10;;;;;;;32.90;13.80;;;;;;;1.28;80.62;98822.66;79541;1298;3011768;-63
2023/02/04 00:39:38;;;;;;;30.40;13.80;;;;;;;1.27;80.63;98821.15;78230;1298;3051740;-66
2023/02/04 00:42:06;;;;;;;30.80;13.40;;;;;;;1.17;81.05;98818.55;79247;1297;3013485;-65
2023/02/04 00:44:32;;;;;;;34.30;13.40;;;;;;;1.04;81.68;98816.03;79211;1298;3013139;-65
2023/02/04 00:47:02;;;;;;;29.00;14.10;;;;;;;0.93;81.98;98817.08;77943;1297;3049243;-62
2023/02/04 00:49:29;;;;;;;32.90;13.20;;;;;;;0.89;82.83;98814.09;79173;1298;3011578;-64
2023/02/04 00:51:56;;;;;;;20.70;10.60;;;;;;;0.96;82.59;98814.55;79153;1296;3011835;-63
2023/02/04 00:54:24;;;;;;;22.40;9.60;;;;;;;1.38;81.89;98811.09;78039;1298;3052400;-65
2023/02/04 00:56:51;;;;;;;25.50;10.90;;;;;;;2.08;79.40;98806.46;79457;1297;3018716;-64
2023/02/04 00:59:17;;;;;;;26.30;11.90;;;;;;;2.13;78.22;98810.93;79351;1298;3011660;-63
2023/02/04 01:01:45;;;;;;;26.70;12.20;;;;;;;1.99;78.40;98806.07;78192;1297;3028792;-62
2023/02/04 01:04:14;;;;;;;30.10;12.90;;;;;;;2.02;78.64;98805.13;79349;1294;3013668;-64
2023/02/04 01:06:44;;;;;;;31.90;13.00;;;;;;;1.88;78.91;98801.48;78863;1297;3011545;-63
2023/02/04 01:09:11;;;;;;;25.60;11.80;;;;;;;1.72;78.89;98801.51;79450;1298;3013431;-65
2023/02/04 01:11:37;;;;;;;31.80;13.30;;;;;;;1.53;79.85;98798.36;79374;1297;3011844;-61
2023/02/04 01:14:05;;;;;;;33.30;13.60;;;;;;;1.40;80.66;98799.33;78085;1298;3052092;-63
2023/02/04 01:16:32;;;;;;;25.00;12.00;;;;;;;1.27;81.36;98796.15;79426;1295;3021157;-63
2023/02/04 01:18:59;;;;;;;27.60;12.30;;;;;;;1.23;81.93;98795.23;79453;1298;3011712;-64
2023/02/04 01:21:27;;;;;;;30.40;13.10;;;;;;;1.25;81.64;98792.76;78000;1298;3028479;-65
2023/02/04 01:23:53;;;;;;;27.20;11.70;;;;;;;1.16;82.14;98795.83;79359;1298;3013723;-64
2023/02/04 01:26:20;;;;;;;20.40;10.00;;;;;;;1.14;82.10;98793.45;79351;1300;3011799;-62
2023/02/04 01:28:48;;;;;;;19.30;8.60;;;;;;;1.63;81.41;98802.67;78041;1294;3028559;-63
2023/02/04 01:31:14;;;;;;;21.10;9.30;;;;;;;2.20;79.19;98800.84;79467;1295;3013489;-64
2023/02/04 01:33:41;;;;;;;25.00;10.50;;;;;;;2.35;77.66;98798.91;79376;1295;3011631;-66
2023/02/04 01:36:09;;;;;;;25.20;11.60;;;;;;;2.25;77.37;98798.38;78194;1297;3025729;-63
2023/02/04 01:38:36;;;;;;;23.20;11.70;;;;;;;2.09;77.63;98798.11;79373;1298;3013704;-62
2023/02/04 01:41:04;;;;;;;28.10;11.30;;;;;;;1.92;77.94;98796.14;79370;1294;3012058;-63
2023/02/04 01:43:32;;;;;;;24.30;11.60;;;;;;;1.64;78.56;98800.06;78235;1298;3053435;-61
2023/02/04 01:46:01;;;;;;;23.30;10.00;;;;;;;1.49;79.77;98800.42;79464;1295;3013053;-62
2023/02/04 01:48:31;;;;;;;19.00;9.50;;;;;;;1.28;80.22;98800.07;78653;1295;3013490;-64
2023/02/04 01:51:05;;;;;;;25.60;10.20;;;;;;;1.04;80.95;98801.00;79403;1295;3021102;-63
2023/02/04 01:53:33;;;;;;;19.20;9.70;;;;;;;0.86;81.91;98800.04;78142;1298;3052350;-61
2023/02/04 01:56:00;;;;;;;18.50;9.10;;;;;;;0.86;82.69;98803.52;79522;1295;3013595;-65
2023/02/04 01:58:29;;;;;;;20.40;10.20;;;;;;;0.82;82.70;98804.67;79291;1296;3011583;-64
2023/02/04 02:00:57;;;;;;;16.40;7.00;;;;;;;0.92;83.10;98802.79;78127;1294;3056545;-64
2023/02/04 02:03:24;;;;;;;12.00;5.80;;;;;;;1.45;81.71;98804.14;79527;1295;3018713;-64
2023/02/04 02:05:51;;;;;;;13.90;7.40;;;;;;;2.08;78.96;98801.27;79606;1295;3011648;-65
2023/02/04 02:08:20;;;;;;;13.30;7.00;;;;;;;2.16;77.60;98802.52;78065;1300;3052926;-64
2023/02/04 02:10:46;;;;;;;13.30;7.00;;;;;;;2.02;77.28;98800.79;79409;1298;3013433;-65
2023/02/04 02:13:15;;;;;;;20.80;9.30;;;;;;;1.89;77.58;98801.61;79388;1297;3011764;-65
2023/02/04 02:15:43;;;;;;;17.20;8.40;;;;;;;1.68;78.67;98802.16;78335;1297;3056511;-64
2023/02/04 02:18:10;;;;;;;20.30;9.50;;;;;;;1.67;78.73;98804.09;79185;1295;3012873;-64
2023/02/04 02:20:37;;;;;;;17.50;8.90;;;;;;;1.59;78.99;98807.31;79293;1295;3011920;-66
2023/02/04 02:23:10;;;;;;;15.40;8.60;;;;;;;1.52;79.12;98809.08;78273;1297;3026128;-62
2023/02/04 02:25:37;;;;;;;;;;;;;;;1.31;79.62;98808.93;79213;1301;3013156;-64
2023/02/04 02:28:09;;;;;;;16.90;7.70;;;;;;;1.16;80.07;98808.04;78206;1296;3069178;-62
2023/02/04 02:30:36;;;;;;;14.90;7.50;;;;;;;1.13;80.54;98807.29;79490;1297;3011618;-64
2023/02/04 02:33:04;;;;;;;16.00;8.30;;;;;;;1.11;80.71;98810.44;78317;1298;3055782;-65
2023/02/04 02:35:32;;;;;;;15.30;7.90;;;;;;;0.95;81.20;98809.43;79402;1295;3013144;-65
2023/02/04 02:37:59;;;;;;;14.70;8.00;;;;;;;0.94;81.25;98806.01;79497;1294;3011866;-64
2023/02/04 02:40:27;;;;;;;16.90;7.60;;;;;;;0.97;81.47;98807.45;78320;1297;3052794;-63
2023/02/04 02:42:54;;;;;;;14.50;6.90;;;;;;;0.93;81.52;98808.43;79414;1297;3021217;-62
2023/02/04 02:45:25;;;;;;;11.00;5.50;;;;;;;1.41;80.39;98809.98;79386;1298;3013221;-64
2023/02/04 02:47:54;;;;;;;12.10;6.30;;;;;;;1.99;78.19;98808.66;78181;1294;3056280;-64
2023/02/04 02:50:23;;;;;;;12.40;6.60;;;;;;;2.20;77.02;98807.73;79419;1295;3015326;-63
2023/02/04 02:52:52;;;;;;;14.80;7.00;;;;;;;2.08;76.67;98806.63;78917;1298;3011641;-67
2023/02/04 02:55:21;;;;;;;16.30;8.20;;;;;;;2.00;76.94;98805.86;79416;1301;3013361;-64
2023/02/04 02:57:48;;;;;;;12.70;7.30;;;;;;;1.80;77.59;98809.53;79300;1298;3013454;-66
2023/02/04 03:00:19;;;;;;;14.10;7.40;;;;;;;1.70;78.50;98811.25;78343;1297;3069426;-65
2023/02/04 03:03:01;;;;;;;15.40;7.90;;;;;;;1.58;78.80;98815.12;79536;1298;3013867;-65
2023/02/04 03:05:30;;;;;;;15.00;8.10;;;;;;;1.52;79.05;98818.58;78259;1294;3056460;-65
2023/02/04 03:07:57;;;;;;;15.10;8.00;;;;;;;1.27;79.71;98814.96;79464;1295;3013655;-65
2023/02/04 03:10:24;;;;;;;15.70;8.10;;;;;;;1.25;80.16;98813.81;79388;1295;3011622;-61
2023/02/04 03:12:52;;;;;;;15.50;7.70;;;;;;;1.14;80.73;98816.39;78090;1295;3052301;-66
2023/02/04 03:15:18;;;;;;;20.20;9.30;;;;;;;1.14;81.15;98816.73;79559;1298;3020771;-65
2023/02/04 03:17:45;;;;;;;15.50;8.90;;;;;;;1.06;81.14;98819.59;79426;1295;3013242;-64
2023/02/04 03:20:14;;;;;;;18.80;8.20;;;;;;;1.15;81.42;98816.71;78238;1295;3027890;-63
2023/02/04 03:22:41;;;;;;;16.90;8.40;;;;;;;1.09;81.11;98815.20;79513;1295;3013745;-65
2023/02/04 03:25:08;;;;;;;18.90;8.60;;;;;;;1.03;81.31;98815.55;79405;1295;3011713;-66
2023/02/04 03:27:36;;;;;;;13.20;6.70;;;;;;;1.49;80.36;98816.63;78133;1298;3053763;-62
2023/02/04 03:30:03;;;;;;;13.60;7.60;;;;;;;2.27;78.23;98813.34;79342;1298;3018287;-65
2023/02/04 03:32:30;;;;;;;16.30;8.10;;;;;;;2.69;77.23;98814.21;79494;1295;3011773;-66
2023/02/04 03:34:58;;;;;;;20.10;9.20;;;;;;;2.37;76.19;98812.64;78295;1298;3056834;-63
2023/02/04 03:37:24;;;;;;;14.00;6.40;;;;;;;2.01;76.44;98816.36;79377;1294;3013003;-63
2023/02/04 03:39:51;;;;;;;9.30;4.60;;;;;;;1.68;77.16;98820.81;79519;1295;3011546;-62
2023/02/04 03:42:19;;;;;;;6.00;3.20;;;;;;;1.40;78.11;98815.19;78208;1297;3028204;-63
2023/02/04 03:44:46;;;;;;;4.30;2.00;;;;;;;1.21;78.19;98816.00;79443;1297;3013419;-65
2023/02/04 03:47:12;;;;;;;4.00;2.20;;;;;;;1.13;78.61;98813.52;79489;1298;3011802;-65
2023/02/04 03:49:41;;;;;;;3.20;2.00;;;;;;;1.00;79.01;98813.59;78222;1298;3056814;-61
2023/02/04 03:52:07;;;;;;;3.60;2.00;;;;;;;0.69;80.34;98822.29;79583;1295;3018730;-68
2023/02/04 03:54:34;;;;;;;3.00;1.70;;;;;;;0.51;81.06;98817.33;79378;1296;3011626;-62
2023/02/04 03:57:02;;;;;;;2.90;2.00;;;;;;;0.53;81.10;98815.71;78272;1298;3028856;-62
2023/02/04 03:59:29;;;;;;;3.60;2.30;;;;;;;0.29;81.32;98817.61;79426;1297;3012988;-64
2023/02/04 04:02:01;;;;;;;2.00;1.50;;;;;;;0.10;83.90;98814.90;78938;1294;3011833;-62
2023/02/04 04:04:27;;;;;;;2.10;1.40;;;;;;;0.73;83.37;98810.25;79422;1295;3013296;-62
2023/02/04 04:06:54;;;;;;;2.90;1.80;;;;;;;1.21;79.32;98810.30;79531;1298;3012057;-63
2023/02/04 04:09:22;;;;;;;2.50;1.80;;;;;;;1.13;78.54;98809.71;78332;1294;3027618;-63
2023/02/04 04:11:48;;;;;;;4.00;2.40;;;;;;;0.95;78.70;98815.97;79508;1298;3013421;-64
2023/02/04 04:14:15;;;;;;;3.60;2.50;;;;;;;0.78;78.71;98814.94;79453;1297;3013230;-63
2023/02/04 04:16:43;;;;;;;4.80;2.40;;;;;;;0.45;79.93;98810.60;78186;1298;3028270;-63
2023/02/04 04:19:14;;;;;;;3.70;2.60;;;;;;;0.32;80.17;98817.71;79395;1298;3013158;-63
2023/02/04 04:21:42;;;;;;;4.00;2.70;;;;;;;0.32;80.27;98819.95;78184;1297;3028233;-65
2023/02/04 04:24:09;;;;;;;4.10;2.60;;;;;;;-0.02;81.18;98813.52;79404;1297;3013947;-63
2023/02/04 04:26:37;;;;;;;4.80;2.80;;;;;;;0.03;81.11;98813.02;79332;1296;3011717;-64
2023/02/04 04:29:05;;;;;;;4.50;2.60;;;;;;;-0.14;82.01;98813.86;78104;1297;3053075;-63
2023/02/04 04:31:32;;;;;;;3.60;2.50;;;;;;;-0.27;82.60;98811.95;79383;1298;3013360;-64
2023/02/04 04:33:58;;;;;;;2.50;2.00;;;;;;;-0.34;83.38;98813.34;79323;1298;3011867;-65
2023/02/04 04:36:26;;;;;;;3.00;2.10;;;;;;;0.15;82.32;98808.20;78161;1298;3027436;-67
2023/02/04 04:38:52;;;;;;;3.40;2.60;;;;;;;0.46;80.80;98818.69;79409;1295;3013381;-64
2023/02/04 04:41:19;;;;;;;5.70;3.20;;;;;;;0.48;80.13;98815.69;79329;1296;3011561;-64
2023/02/04 04:43:47;;;;;;;6.40;3.40;;;;;;;0.18;80.64;98822.92;78279;1297;3026069;-62
2023/02/04 04:46:14;;;;;;;7.80;4.70;;;;;;;0.04;81.11;98822.31;79470;1297;3012940;-63
2023/02/04 04:48:40;;;;;;;7.90;4.70;;;;;;;-0.02;80.96;98826.41;79470;1294;3011661;-63
2023/02/04 04:51:08;;;;;;;9.90;5.60;;;;;;;-0.03;81.12;98829.19;78136;1298;3027933;-61
2023/02/04 04:53:35;;;;;;;9.20;5.70;;;;;;;-0.03;81.33;98834.02;79400;1294;3018153;-64
2023/02/04 04:56:02;;;;;;;11.20;5.90;;;;;;;-0.19;82.12;98842.20;79618;1294;3013641;-64
2023/02/04 04:58:30;;;;;;;9.80;5.60;;;;;;;-0.30;82.41;98849.20;78095;1297;3028578;-63
2023/02/04 05:00:56;;;;;;;10.90;5.20;;;;;;;-0.31;82.95;98856.30;79577;1295;3011589;-61
2023/02/04 05:03:23;;;;;;;7.90;4.90;;;;;;;-0.29;82.52;98859.84;79446;1297;3011409;-63
2023/02/04 05:05:51;;;;;;;5.30;2.80;;;;;;;-0.37;83.48;98864.88;78181;1297;3027040;-61
2023/02/04 05:08:19;;;;;;;6.80;3.60;;;;;;;0.20;82.52;98870.40;79630;1295;3013909;-64
2023/02/04 05:10:49;;;;;;;3.70;2.30;;;;;;;1.00;79.85;98870.82;79013;1294;3013860;-67
2023/02/04 05:13:16;;;;;;;5.10;2.50;;;;;;;1.09;78.23;98876.40;79485;1298;3013054;-64
2023/02/04 05:15:43;;;;;;;6.20;3.50;;;;;;;0.93;78.19;98877.41;79585;1297;3011766;-63
2023/02/04 05:18:10;;;;;;;5.20;3.20;;;;;;;0.57;78.59;98880.91;78345;1297;3028917;-73
2023/02/04 05:20:37;;;;;;;5.60;3.60;;;;;;;0.48;79.83;98887.05;79444;1295;3013882;-69
2023/02/04 05:23:04;;;;;;;5.10;3.40;;;;;;;0.18;80.64;98894.23;79462;1298;3011623;-66
2023/02/04 05:25:32;;;;;;;7.00;4.20;;;;;;;0.08;81.07;98899.33;78160;1295;3028446;-65
2023/02/04 05:27:58;;;;;;;5.00;3.70;;;;;;;-0.05;81.72;98897.97;79493;1298;3013194;-70
2023/02/04 05:30:25;;;;;;;6.30;3.90;;;;;;;-0.12;81.63;98901.74;79495;1297;3013398;-69
2023/02/04 05:32:52;;;;;;;5.40;3.90;;;;;;;-0.13;81.64;98904.73;78436;1297;3026068;-64
2023/02/04 05:35:19;;;;;;;5.20;3.20;;;;;;;-0.10;81.43;98904.11;79568;1295;3012927;-62
2023/02/04 05:37:45;;;;;;;5.20;3.70;;;;;;;-0.29;81.99;98905.30;79427;1295;3012978;-64
2023/02/04 05:40:13;;;;;;;5.10;3.00;;;;;;;-0.29;82.02;98905.27;78184;1297;3027064;-64
2023/02/04 05:42:40;;;;;;;4.60;2.50;;;;;;;0.19;81.58;98907.14;79409;1308;3013055;-64
2023/02/04 05:45:13;;;;;;;6.20;3.70;;;;;;;0.79;79.35;98900.08;79482;1297;3011686;-64
2023/02/04 05:47:41;;;;;;;5.30;3.30;;;;;;;0.96;77.94;98903.91;78198;1297;3068931;-62
2023/02/04 05:50:08;;;;;;;6.20;3.50;;;;;;;0.73;78.57;98913.73;79522;1295;3012977;-65
2023/02/04 05:52:35;;;;;;;6.70;4.00;;;;;;;0.61;78.50;98915.27;79402;1295;3012795;-64
2023/02/04 05:55:04;;;;;;;7.10;4.00;;;;;;;0.42;78.87;98925.98;78200;1294;3053563;-63
2023/02/04 05:57:30;;;;;;;6.40;4.00;;;;;;;0.21;79.76;98931.89;79526;1298;3016130;-64
2023/02/04 05:59:57;;;;;;;5.30;3.40;;;;;;;0.28;79.58;98926.18;79483;1297;3011947;-63
2023/02/04 06:02:25;;;;;;;5.90;3.80;;;;;;;0.13;80.02;98928.98;78289;1298;3068285;-63
2023/02/04 06:04:52;;;;;;;6.50;4.40;;;;;;;0.20;79.41;98934.67;79569;1297;3013150;-66
2023/02/04 06:07:18;;;;;;;7.20;4.70;;;;;;;0.00;80.09;98932.77;79517;1297;3011880;-65
2023/02/04 06:09:46;;;;;;;6.90;4.80;;;;;;;-0.19;80.99;98934.81;78286;1298;3024849;-65
2023/02/04 06:12:13;;;;;;;6.20;4.50;;;;;;;-0.17;81.54;98935.46;79518;1298;3012787;-64
2023/02/04 06:14:40;;;;;;;9.40;5.00;;;;;;;-0.26;81.80;98941.52;79426;1298;3011790;-65
2023/02/04 06:17:08;;;;;;;6.90;3.90;;;;;;;-0.18;81.70;98938.41;78155;1295;3026677;-62
2023/02/04 06:19:35;;;;;;;5.70;3.20;;;;;;;0.47;80.54;98937.52;79503;1295;3013141;-64
2023/02/04 06:22:02;;;;;;;5.80;3.30;;;;;;;1.07;77.54;98937.04;79379;1294;3011725;-64
2023/02/04 06:24:30;;;;;;;7.80;4.40;;;;;;;1.07;76.93;98933.77;78135;1298;3051573;-64
2023/02/04 06:26:56;;;;;;;6.10;4.00;;;;;;;1.01;76.61;98939.79;79556;1298;3012898;-65
2023/02/04 06:29:23;;;;;;;9.50;4.90;;;;;;;0.94;76.84;98938.98;79418;1298;3012978;-63
2023/02/04 06:31:51;;;;;;;7.50;4.50;;;;;;;0.75;76.97;98939.33;78180;1296;3028915;-63
2023/02/04 06:34:18;;;;;;;8.40;4.60;;;;;;;0.56;77.71;98944.70;79405;1296;3012929;-66
2023/02/04 06:36:45;;;;;;;6.10;4.20;;;;;;;0.36;78.17;98960.09;79592;1294;3011571;-67
2023/02/04 06:39:13;;;;;;;6.40;4.30;;;;;;;0.23;78.69;98958.18;78528;1297;3027286;-68
2023/02/04 06:41:40;;;;;;;7.30;4.60;;;;;;;0.17;78.49;98963.33;79506;1297;3013321;-65
2023/02/04 06:44:06;;;;;;;6.90;4.30;;;;;;;-0.09;79.36;98972.77;79683;1298;3012987;-69
2023/02/04 06:46:34;;;;;;;6.60;4.20;;;;;;;-0.21;79.86;98965.48;78543;1298;3028391;-63
2023/02/04 06:49:01;;;;;;;7.70;4.70;;;;;;;-0.12;79.55;98968.20;79495;1295;3013104;-67
2023/02/04 06:51:28;;;;;;;9.10;5.40;;;;;;;-0.30;80.60;98973.98;79666;1297;3011699;-64
2023/02/04 06:53:58;;;;;;;8.30;4.50;;;;;;;-0.38;81.03;98975.70;78239;1297;3028928;-67
2023/02/04 06:56:25;;;;;;;7.60;5.00;;;;;;;-0.26;80.92;98973.88;79610;1298;3013454;-67
2023/02/04 06:58:54;;;;;;;4.50;2.60;;;;;;;-0.28;81.17;98975.13;79007;1297;3011364;-66
2023/02/04 07:01:21;;;;;;;6.20;3.30;;;;;;;0.25;79.94;98971.21;79643;1298;3013188;-67
2023/02/04 07:03:47;;;;;;;6.60;3.80;;;;;;;0.79;77.74;98972.16;79556;1296;3012452;-64
2023/02/04 07:06:15;;;;;;;9.90;3.90;;;;;;;1.27;76.49;98971.29;78288;1298;3028269;-64
2023/02/04 07:08:42;;;;;;;6.90;4.00;;;;;;;1.11;75.64;98973.14;79554;1295;3013686;-64
2023/02/04 07:11:09;;;;;;;6.90;4.10;;;;;;;0.83;75.79;98975.15;79484;1295;3011924;-67
2023/02/04 07:13:37;;;;;;;6.50;4.20;;;;;;;0.62;76.75;98985.04;78239;1297;3025963;-65
2023/02/04 07:16:06;;;;;;;6.90;4.00;;;;;;;0.51;76.84;98982.44;79482;1297;3013648;-65
2023/02/04 07:18:35;;;;;;;6.00;3.50;;;;;;;0.44;77.43;98981.38;78990;1295;3011408;-63
2023/02/04 07:21:01;;;;;;;6.60;4.00;;;;;;;0.48;76.53;98988.17;79422;1298;3012915;-67
2023/02/04 07:23:28;;;;;;;5.60;4.10;;;;;;;0.31;77.02;98989.66;79722;1298;3011532;-66
2023/02/04 07:25:58;;;;;;;6.70;4.40;;;;;;;0.27;77.54;98984.80;78276;1298;3026576;-64
2023/02/04 07:28:25;;;;;;;6.10;4.00;;;;;;;0.18;77.78;98985.55;79642;1298;3012750;-65
2023/02/04 07:30:51;;;;;;;6.50;4.20;;;;;;;0.16;77.43;98981.11;79485;1298;3013153;-67
2023/02/04 07:33:19;;;;;;;6.50;3.70;;;;;;;0.11;77.88;98991.05;78361;1296;3069949;-65
2023/02/04 07:35:46;;;;;;;7.70;4.30;;;;;;;0.04;77.87;98996.91;79544;1298;3013260;-67
2023/02/04 07:38:12;;;;;;;7.30;4.50;;;;;;;-0.08;78.59;98995.48;79491;1298;3011559;-64
2023/02/04 07:40:40;;;;;;;9.40;4.20;;;;;;;-0.02;78.74;98999.64;78321;1298;3028693;-64
2023/02/04 07:43:07;;;;;;;9.80;4.70;;;;;;;0.02;78.44;98999.39;79629;1311;3013141;-66
2023/02/04 07:45:34;;;;;;;4.40;2.70;;;;;;;-0.03;78.21;99000.19;79431;1295;3011738;-66
2023/02/04 07:48:02;;;;;;;5.00;2.80;;;;;;;0.42;77.97;98999.02;78240;1295;3028534;-67
2023/02/04 07:50:31;;;;;;;6.20;3.40;;;;;;;1.25;75.26;98999.45;79388;1295;3013550;-64
2023/02/04 07:53:00;;;;;;;6.30;3.40;;;;;;;1.28;74.00;99000.41;78925;1294;3011593;-62
2023/02/04 07:55:27;;;;;;;5.30;3.50;;;;;;;1.11;74.05;98997.79;79545;1296;3021371;-65
2023/02/04 07:57:54;;;;;;;7.30;4.40;;;;;;;1.01;74.63;98999.83;79564;1298;3011476;-65
2023/02/04 08:00:22;;;;;;;7.60;4.30;;;;;;;0.83;75.03;99002.40;78403;1298;3028316;-66
2023/02/04 08:02:49;;;;;;;7.10;3.90;;;;;;;0.79;75.27;99003.19;79428;1298;3013477;-63
2023/02/04 08:05:15;;;;;;;10.40;5.30;;;;;;;0.75;75.11;99006.73;79366;1295;3011410;-65
2023/02/04 08:07:44;;;;;;;9.10;5.00;;;;;;;0.67;75.37;99010.23;78270;1295;3027846;-63
2023/02/04 08:10:11;;;;;;;10.50;5.70;;;;;;;0.29;76.53;99017.30;79488;1295;3013111;-63
2023/02/04 08:12:40;;;;;;;9.20;4.90;;;;;;;0.14;76.88;99015.26;79437;1297;3011723;-65
2023/02/04 08:15:08;;;;;;;8.40;4.90;;;;;;;0.07;77.39;99022.85;78170;1297;3052848;-64
2023/02/04 08:17:35;;;;;;;5.60;4.00;;;;;;;0.04;77.33;99019.64;79698;1298;3013461;-66
2023/02/04 08:20:01;;;;;;;6.20;4.30;;;;;;;-0.07;77.84;99021.27;79565;1298;3011740;-63
2023/02/04 08:22:29;;;;;;;9.30;5.10;;;;;;;-0.22;78.45;99025.96;78281;1297;3056444;-63
2023/02/04 08:24:56;;;;;;;5.70;4.10;;;;;;;-0.18;79.05;99026.02;80167;1295;3012850;-67
2023/02/04 08:27:22;;;;;;;11.10;4.80;;;;;;;-0.08;78.34;99032.15;79628;1295;3013225;-64
2023/02/04 08:29:50;;;;;;;9.20;3.90;;;;;;;0.02;78.43;99042.59;78244;1294;3028330;-63
2023/02/04 08:32:16;;;;;;;7.20;4.40;;;;;;;0.02;78.09;99046.02;79516;1295;3013152;-65
2023/02/04 08:34:43;;;;;;;9.00;5.00;;;;;;;-0.04;78.26;99046.53;79400;1298;3012097;-64
2023/02/04 08:37:11;;;;;;;5.70;2.90;;;;;;;0.03;78.01;99050.66;78391;1298;3026006;-62
2023/02/04 08:39:43;;;;;;;4.90;2.90;;;;;;;0.64;77.05;99048.06;79515;1294;3013472;-64
2023/02/04 08:42:12;;;;;;;6.40;3.60;;;;;;;1.51;74.68;99044.22;78227;1298;3049650;-64
2023/02/04 08:44:39;;;;;;;5.60;3.40;;;;;;;1.70;72.76;99041.41;79530;1298;3013914;-65
2023/02/04 08:47:06;;;;;;;5.70;2.90;;;;;;;1.67;72.65;99039.93;79372;1295;3013268;-63
2023/02/04 08:49:36;;;;;;;6.80;3.90;;;;;;;1.52;72.06;99035.39;78235;1298;3052370;-61
2023/02/04 08:52:03;;;;;;;5.30;3.50;;;;;;;1.08;72.87;99045.28;79665;1295;3013206;-63
2023/02/04 08:54:32;;;;;;;6.50;3.70;;;;;;;0.66;74.65;99046.98;79557;1295;3013140;-61
2023/02/04 08:57:00;;;;;;;6.40;3.90;;;;;;;0.58;74.99;99042.03;78251;1298;3050372;-65
2023/02/04 08:59:27;;;;;;;7.20;4.30;;;;;;;0.34;75.05;99048.34;79569;1298;3016098;-63
2023/02/04 09:01:53;;;;;;;5.30;3.90;;;;;;;0.15;76.04;99048.83;79512;1295;3011774;-61
2023/02/04 09:04:22;;;;;;;7.40;4.50;;;;;;;0.12;76.03;99048.55;78225;1295;3052084;-66
2023/02/04 09:06:49;;;;;;;6.70;4.00;;;;;;;0.03;75.90;99047.57;79569;1296;3013196;-64
2023/02/04 09:09:16;;;;;;;5.30;3.40;;;;;;;-0.01;76.26;99045.58;79437;1298;3011482;-65
2023/02/04 09:11:44;;;;;;;7.80;4.70;;;;;;;0.00;76.14;99043.66;78372;1298;3050571;-64
2023/02/04 09:14:11;;;;;;;8.30;4.30;;;;;;;-0.05;75.82;99041.06;79446;1298;3013462;-62
2023/02/04 09:16:38;;;;;;;9.20;4.50;;;;;;;-0.05;76.46;99041.91;79417;1298;3013143;-63
2023/02/04 09:19:07;;;;;;;5.50;3.80;;;;;;;0.04;76.14;99043.75;78419;1295;3028181;-63
2023/02/04 09:21:34;;;;;;;6.40;4.00;;;;;;;0.09;75.92;99045.88;79370;1298;3013567;-65
2023/02/04 09:24:01;;;;;;;8.40;3.80;;;;;;;0.28;75.69;99045.57;79613;1296;3011703;-64
2023/02/04 09:26:29;;;;;;;7.60;4.40;;;;;;;0.12;75.03;99053.36;78114;1297;3049865;-64
2023/02/04 09:28:56;;;;;;;6.50;4.00;;;;;;;0.03;75.62;99055.14;79295;1298;3021141;-65
2023/02/04 09:31:22;;;;;;;5.60;3.70;;;;;;;-0.01;76.19;99052.30;79402;1297;3012892;-64
2023/02/04 09:33:51;;;;;;;6.10;4.10;;;;;;;-0.06;76.19;99047.08;78199;1298;3025762;-64
2023/02/04 09:36:18;;;;;;;6.30;4.20;;;;;;;-0.08;76.42;99047.65;79490;1296;3012988;-65
2023/02/04 09:38:44;;;;;;;7.70;4.10;;;;;;;-0.13;76.41;99047.78;79558;1295;3013503;-61
2023/02/04 09:41:12;;;;;;;5.40;3.40;;;;;;;-0.07;76.53;99050.90;78385;1294;3050180;-64
2023/02/04 09:43:43;;;;;;;5.60;3.80;;;;;;;-0.06;76.10;99041.23;79278;1301;3012851;-63
2023/02/04 09:46:22;;;;;;;6.10;4.00;;;;;;;0.11;76.19;99034.45;78155;1299;3071449;-62
2023/02/04 09:48:50;;;;;;;6.10;4.00;;;;;;;0.02;75.81;99041.04;76884;1296;5046421;-65
2023/02/04 09:51:19;;;;;;;6.40;4.00;;;;;;;0.18;75.89;99039.61;79623;1294;3018431;-64
2023/02/04 09:53:48;;;;;;;7.70;4.40;;;;;;;0.29;75.35;99042.95;79206;1298;3011498;-63
2023/02/04 09:56:16;;;;;;;7.40;4.10;;;;;;;0.29;75.14;99044.00;79747;1296;3013257;-63
2023/02/04 09:58:42;;;;;;;4.70;3.40;;;;;;;0.24;75.16;99042.75;79656;1295;3012828;-62
2023/02/04 10:01:17;;;;;;;5.70;3.70;;;;;;;0.48;74.63;99042.12;78474;1298;3026590;-64
2023/02/04 10:03:47;;;;;;;6.80;4.10;;;;;;;0.38;74.48;99045.30;78959;1295;3012907;-61
2023/02/04 10:06:15;;;;;;;6.50;3.70;;;;;;;0.28;74.79;99041.95;79557;1294;3011580;-62
2023/02/04 10:08:45;;;;;;;6.20;3.60;;;;;;;0.33;74.74;99043.54;79034;1294;3011711;-62
2023/02/04 10:11:12;;;;;;;5.30;3.70;;;;;;;0.37;74.54;99044.30;79578;1295;3014859;-62
2023/02/04 10:13:45;;;;;;;5.70;3.70;;;;;;;0.45;74.75;99034.11;79473;1295;3011491;-65
2023/02/04 10:16:21;;;;;;;5.40;3.20;;;;;;;0.59;74.52;99041.31;78298;1298;3049965;-64
2023/02/04 10:18:49;;;;;;;6.20;3.70;;;;;;;0.71;73.59;99040.46;78246;1298;3052525;-64
2023/02/04 10:21:46;;;;;;;6.50;4.20;;;;;;;0.78;73.54;99041.52;79562;1298;3013602;-62
2023/02/04 10:24:18;;;;;;;5.00;3.10;;;;;;;0.81;72.99;99043.47;78410;1297;3051579;-65
2023/02/04 10:26:46;;;;;;;6.40;3.80;;;;;;;0.89;73.10;99043.80;79514;1295;3011756;-62
2023/02/04 10:29:16;;;;;;;6.50;3.80;;;;;;;0.87;72.74;99042.29;78097;1298;3048747;-63
2023/02/04 10:31:44;;;;;;;6.70;3.90;;;;;;;0.71;73.17;99039.10;79431;1298;3013056;-63
2023/02/04 10:34:19;;;;;;;5.70;3.70;;;;;;;0.65;73.58;99042.02;79041;1298;3011830;-65
2023/02/04 10:36:48;;;;;;;6.10;3.60;;;;;;;0.51;73.82;99040.16;79536;1299;3012796;-64
2023/02/04 10:39:17;;;;;;;5.00;3.30;;;;;;;0.37;74.54;99044.30;78529;1298;3050870;-62
2023/02/04 10:41:52;;;;;;;5.40;3.60;;;;;;;0.60;74.30;99046.12;81411;1295;3011644;-65
2023/02/04 10:44:34;;;;;;;6.60;4.10;;;;;;;0.52;73.93;99044.62;78387;1296;3051651;-66
2023/02/04 10:47:04;;;;;;;6.20;3.80;;;;;;;0.35;74.38;99048.84;78412;1298;3055921;-63
2023/02/04 10:49:32;;;;;;;8.40;4.60;;;;;;;0.48;74.75;99045.23;79600;1296;3011470;-66
2023/02/04 10:52:01;;;;;;;7.20;4.60;;;;;;;0.51;74.82;99047.91;78214;1298;3028732;-65
2023/02/04 10:54:31;;;;;;;7.20;4.10;;;;;;;0.46;74.99;99049.92;79452;1307;3013152;-63
2023/02/04 10:57:23;;;;;;;7.30;4.50;;;;;;;0.49;75.01;99052.77;78981;1298;3011838;-62
2023/02/04 10:59:54;;;;;;;8.30;4.80;;;;;;;0.58;74.82;99060.33;78273;1298;3052343;-61
2023/02/04 11:02:30;;;;;;;7.20;4.40;;;;;;;0.62;74.50;99059.70;79434;1299;3013370;-60
2023/02/04 11:04:58;;;;;;;6.80;4.00;;;;;;;0.60;74.96;99058.02;78399;1297;3052018;-66
2023/02/04 11:07:24;;;;;;;6.70;4.50;;;;;;;0.52;75.02;99051.83;79197;1295;3011597;-63
2023/02/04 11:10:58;;;;;;;7.30;5.20;;;;;;;0.53;75.05;99045.95;79893;1301;3015569;-64
2023/02/04 11:13:27;;;;;;;6.30;4.50;;;;;;;0.54;75.32;99047.65;78939;1304;3013257;-66
2023/02/04 11:16:16;;;;;;;10.00;5.60;;;;;;;0.45;75.45;99047.90;77624;1306;3049345;-65
2023/02/04 11:18:45;;;;;;;10.70;4.90;;;;;;;0.40;75.37;99047.15;77619;1303;3053479;-66
2023/02/04 11:21:22;;;;;;;9.80;5.50;;;;;;;0.47;75.26;99044.38;78954;1305;3013567;-63
2023/02/04 11:24:10;;;;;;;7.00;3.30;;;;;;;0.43;75.73;99041.73;77098;1305;3049110;-64